Time;durP1;ratioP1;P1;durP2;ratioP2;P2;SDS_P1;SDS_P2;PMS_P1;PMS_P2;Temp;Humidity;BMP_temperature;BMP_pressure;BME280_temperature;BME280_humidity;BME280_pressure;Samples;Min_cycle;Max_cycle;Signal;HPM_P1;HPM_P2
2023/04/26 00:00:16;;;;;;;1.48;1.38;;;;;;;;;;5019796;28;20025;-78
2023/04/26 00:02:42;;;;;;;4.53;1.88;;;;;;;;;;5019539;28;20025;-78
2023/04/26 00:05:07;;;;;;;1.45;1.20;;;;;;;;;;5000334;28;20121;-79
2023/04/26 00:07:34;;;;;;;9.00;3.75;;;;;;;;;;5003292;28;20439;-77
2023/04/26 00:10:00;;;;;;;2.22;1.77;;;;;;;;;;5019318;28;20025;-78
2023/04/26 00:12:25;;;;;;;3.53;1.67;;;;;;;;;;5036945;28;20048;-79
2023/04/26 00:14:51;;;;;;;3.33;1.30;;;;;;;;;;5019295;28;20124;-79
2023/04/26 00:17:17;;;;;;;3.15;1.25;;;;;;;;;;5036864;28;20028;-79
2023/04/26 00:19:42;;;;;;;3.72;1.75;;;;;;;;;;5037285;28;20492;-79
2023/04/26 00:22:08;;;;;;;5.35;2.13;;;;;;;;;;5003102;28;20021;-76
2023/04/26 00:24:33;;;;;;;2.70;1.65;;;;;;;;;;5036117;28;20461;-76
2023/04/26 00:27:00;;;;;;;4.65;3.28;;;;;;;;;;4985991;28;20026;-76
2023/04/26 00:29:25;;;;;;;4.78;1.95;;;;;;;;;;5019168;28;20028;-79
2023/04/26 00:31:51;;;;;;;3.15;2.05;;;;;;;;;;5002552;28;20030;-77
2023/04/26 00:34:16;;;;;;;2.22;1.85;;;;;;;;;;5018819;28;20132;-76
2023/04/26 00:36:42;;;;;;;2.17;1.23;;;;;;;;;;5002571;28;20108;-75
2023/04/26 00:39:08;;;;;;;2.70;1.48;;;;;;;;;;5002353;28;20375;-80
2023/04/26 00:41:34;;;;;;;2.67;1.80;;;;;;;;;;5036488;28;20017;-79
2023/04/26 00:43:59;;;;;;;4.05;2.65;;;;;;;;;;5018848;28;20052;-76
2023/04/26 00:46:25;;;;;;;8.05;1.77;;;;;;;;;;5018827;28;20026;-76
2023/04/26 00:48:50;;;;;;;2.00;1.63;;;;;;;;;;4986214;28;20033;-77
2023/04/26 00:51:16;;;;;;;5.53;1.23;;;;;;;;;;4986129;28;20520;-77
2023/04/26 00:53:41;;;;;;;3.08;1.25;;;;;;;;;;5002030;28;20030;-77
2023/04/26 00:56:08;;;;;;;2.90;1.85;;;;;;;;;;5018841;28;20022;-77
2023/04/26 00:58:33;;;;;;;2.17;1.55;;;;;;;;;;5002338;28;20037;-77
2023/04/26 01:00:59;;;;;;;7.72;2.10;;;;;;;;;;5036115;28;20427;-77
2023/04/26 01:03:25;;;;;;;4.35;2.70;;;;;;;;;;5018517;28;20033;-77
2023/04/26 01:05:51;;;;;;;3.15;2.10;;;;;;;;;;4986143;28;20032;-80
2023/04/26 01:08:19;;;;;;;6.13;1.80;;;;;;;;;;5015646;28;20030;-76
2023/04/26 01:10:48;;;;;;;4.20;2.03;;;;;;;;;;5002212;28;20033;-77
2023/04/26 01:13:13;;;;;;;4.97;3.40;;;;;;;;;;5002197;28;20083;-76
2023/04/26 01:15:46;;;;;;;1.42;1.10;;;;;;;;;;5018022;28;20468;-77
2023/04/26 01:18:13;;;;;;;2.72;1.52;;;;;;;;;;5002516;28;20473;-77
2023/04/26 01:20:39;;;;;;;4.53;1.85;;;;;;;;;;5018312;28;20028;-78
2023/04/26 01:23:05;;;;;;;4.13;2.08;;;;;;;;;;5017800;28;20025;-77
2023/04/26 01:25:30;;;;;;;2.72;2.47;;;;;;;;;;5018084;28;20052;-77
2023/04/26 01:27:56;;;;;;;1.73;1.35;;;;;;;;;;5018006;28;20083;-77
2023/04/26 01:30:21;;;;;;;2.40;1.35;;;;;;;;;;5017906;28;20069;-78
2023/04/26 01:32:47;;;;;;;1.88;1.30;;;;;;;;;;4985202;28;20037;-77
2023/04/26 01:35:12;;;;;;;2.75;1.73;;;;;;;;;;5001428;28;20025;-78
2023/04/26 01:37:37;;;;;;;2.85;1.48;;;;;;;;;;5034952;28;20026;-77
2023/04/26 01:40:06;;;;;;;2.35;1.95;;;;;;;;;;5035738;28;20045;-78
2023/04/26 01:42:32;;;;;;;1.95;1.42;;;;;;;;;;5035286;28;20668;-78
2023/04/26 01:44:57;;;;;;;3.75;1.35;;;;;;;;;;5017780;28;20029;-79
2023/04/26 01:47:25;;;;;;;2.72;1.77;;;;;;;;;;5017653;28;20030;-79
2023/04/26 01:49:50;;;;;;;5.10;2.22;;;;;;;;;;5017459;28;20049;-78
2023/04/26 01:52:16;;;;;;;5.50;2.78;;;;;;;;;;5050381;28;20083;-79
2023/04/26 01:54:41;;;;;;;2.03;1.48;;;;;;;;;;5000997;28;20517;-78
2023/04/26 01:57:06;;;;;;;7.88;2.28;;;;;;;;;;5035247;28;20144;-77
2023/04/26 01:59:32;;;;;;;2.75;1.20;;;;;;;;;;5017539;28;20078;-80
2023/04/26 02:01:57;;;;;;;2.25;1.52;;;;;;;;;;5017523;28;20079;-80
2023/04/26 02:04:23;;;;;;;4.53;2.28;;;;;;;;;;5017461;28;20443;-78
2023/04/26 02:06:48;;;;;;;4.28;1.85;;;;;;;;;;5034688;28;20033;-78
2023/04/26 02:09:15;;;;;;;1.95;1.65;;;;;;;;;;4992490;28;20057;-78
2023/04/26 02:11:41;;;;;;;2.22;1.40;;;;;;;;;;4997297;28;20030;-79
2023/04/26 02:14:06;;;;;;;6.20;3.20;;;;;;;;;;4997599;28;20709;-78
2023/04/26 02:16:32;;;;;;;4.80;2.33;;;;;;;;;;5015068;28;20056;-77
2023/04/26 02:18:58;;;;;;;3.78;1.23;;;;;;;;;;4965180;28;20477;-78
2023/04/26 02:21:24;;;;;;;2.03;0.90;;;;;;;;;;4997222;28;20061;-77
2023/04/26 02:23:49;;;;;;;4.40;2.28;;;;;;;;;;4997174;28;20026;-77
2023/04/26 02:26:15;;;;;;;5.18;2.60;;;;;;;;;;4997290;28;20409;-77
2023/04/26 02:28:43;;;;;;;4.60;2.25;;;;;;;;;;4997200;28;20037;-77
2023/04/26 02:31:08;;;;;;;3.17;2.03;;;;;;;;;;4997456;28;20030;-76
2023/04/26 02:33:34;;;;;;;2.42;1.77;;;;;;;;;;4996697;28;20124;-77
2023/04/26 02:36:06;;;;;;;3.17;2.05;;;;;;;;;;4964975;28;20033;-77
2023/04/26 02:38:35;;;;;;;1.65;1.20;;;;;;;;;;5014833;28;20032;-78
2023/04/26 02:41:01;;;;;;;9.32;2.88;;;;;;;;;;4964806;28;20038;-78
2023/04/26 02:43:26;;;;;;;6.47;2.92;;;;;;;;;;4997076;28;20033;-79
2023/04/26 02:45:51;;;;;;;3.45;1.75;;;;;;;;;;4980756;28;20033;-78
2023/04/26 02:48:17;;;;;;;1.23;1.00;;;;;;;;;;4979762;28;20528;-78
2023/04/26 02:50:43;;;;;;;3.42;1.95;;;;;;;;;;4980846;28;20113;-78
2023/04/26 02:53:08;;;;;;;3.33;2.10;;;;;;;;;;4964537;28;20136;-77
2023/04/26 02:55:34;;;;;;;6.65;3.13;;;;;;;;;;4980641;28;20184;-77
2023/04/26 02:57:59;;;;;;;2.10;1.65;;;;;;;;;;4964625;28;20095;-78
2023/04/26 03:00:26;;;;;;;3.90;1.95;;;;;;;;;;4980772;28;20451;-77
2023/04/26 03:02:51;;;;;;;1.45;0.80;;;;;;;;;;4980466;28;20176;-77
2023/04/26 03:05:17;;;;;;;2.53;1.55;;;;;;;;;;4980493;28;20034;-78
2023/04/26 03:07:43;;;;;;;5.65;1.48;;;;;;;;;;4996594;28;20029;-78
2023/04/26 03:10:09;;;;;;;2.15;1.70;;;;;;;;;;5014164;28;20022;-78
2023/04/26 03:12:34;;;;;;;3.92;1.83;;;;;;;;;;4962411;28;20442;-77
2023/04/26 03:15:02;;;;;;;1.77;1.20;;;;;;;;;;5014149;28;20033;-77
2023/04/26 03:17:28;;;;;;;6.28;2.22;;;;;;;;;;5013986;28;20033;-78
2023/04/26 03:19:53;;;;;;;3.25;1.98;;;;;;;;;;5013020;28;20057;-78
2023/04/26 03:22:19;;;;;;;2.45;1.63;;;;;;;;;;4996755;28;20026;-79
2023/04/26 03:24:46;;;;;;;2.50;1.33;;;;;;;;;;4996614;28;20033;-79
2023/04/26 03:27:12;;;;;;;2.22;1.33;;;;;;;;;;4996715;28;20030;-78
2023/04/26 03:29:37;;;;;;;2.17;1.52;;;;;;;;;;5012861;28;20033;-80
2023/04/26 03:32:03;;;;;;;2.97;1.52;;;;;;;;;;4996648;28;20026;-78
2023/04/26 03:34:28;;;;;;;6.78;2.95;;;;;;;;;;4996485;28;20485;-79
2023/04/26 03:36:54;;;;;;;10.07;2.53;;;;;;;;;;4980035;28;20104;-78
2023/04/26 03:39:20;;;;;;;7.93;2.08;;;;;;;;;;4980482;28;20033;-78
2023/04/26 03:41:46;;;;;;;3.22;2.35;;;;;;;;;;4996575;28;20121;-78
2023/04/26 03:44:11;;;;;;;2.53;2.08;;;;;;;;;;4980341;28;20120;-78
2023/04/26 03:46:37;;;;;;;3.92;1.42;;;;;;;;;;4996058;28;20128;-79
2023/04/26 03:49:02;;;;;;;3.30;1.95;;;;;;;;;;4996311;28;20469;-77
2023/04/26 03:51:28;;;;;;;2.80;1.42;;;;;;;;;;4980153;28;20049;-77
2023/04/26 03:53:54;;;;;;;2.90;1.08;;;;;;;;;;4996397;28;20091;-77
2023/04/26 03:56:20;;;;;;;2.53;1.52;;;;;;;;;;4996483;28;20030;-79
2023/04/26 03:58:45;;;;;;;5.95;1.38;;;;;;;;;;5015835;28;20430;-77
2023/04/26 04:01:10;;;;;;;3.00;1.70;;;;;;;;;;5018963;28;20033;-77
2023/04/26 04:03:37;;;;;;;5.82;2.90;;;;;;;;;;5003128;28;20080;-77
2023/04/26 04:06:03;;;;;;;4.25;2.70;;;;;;;;;;5003170;28;20095;-78
2023/04/26 04:08:29;;;;;;;8.27;1.48;;;;;;;;;;5019512;28;20029;-77
2023/04/26 04:10:55;;;;;;;4.13;0.90;;;;;;;;;;5002912;28;20520;-77
2023/04/26 04:13:21;;;;;;;1.30;1.02;;;;;;;;;;5034054;28;20029;-77
2023/04/26 04:15:47;;;;;;;0.93;0.73;;;;;;;;;;5036607;28;20036;-78
2023/04/26 04:18:12;;;;;;;1.55;1.02;;;;;;;;;;4987030;28;20029;-77
2023/04/26 04:20:37;;;;;;;1.85;1.33;;;;;;;;;;5002982;28;20093;-77
2023/04/26 04:23:05;;;;;;;1.92;0.82;;;;;;;;;;5018979;28;20025;-78
2023/04/26 04:25:30;;;;;;;2.88;0.80;;;;;;;;;;5036700;28;20026;-77
2023/04/26 04:27:57;;;;;;;2.85;1.23;;;;;;;;;;5018986;28;20048;-78
2023/04/26 04:30:23;;;;;;;3.47;1.80;;;;;;;;;;5002684;28;20037;-77
2023/04/26 04:32:48;;;;;;;1.10;1.02;;;;;;;;;;5002602;28;20041;-77
2023/04/26 04:35:15;;;;;;;1.48;0.93;;;;;;;;;;4983980;28;20470;-79
2023/04/26 04:37:42;;;;;;;2.05;1.40;;;;;;;;;;5016576;28;20065;-80
2023/04/26 04:40:09;;;;;;;2.92;1.35;;;;;;;;;;4999591;28;20133;-84
2023/04/26 04:42:34;;;;;;;3.75;1.08;;;;;;;;;;5017093;28;20356;-85
2023/04/26 04:45:00;;;;;;;2.53;1.35;;;;;;;;;;4999252;28;20044;-85
2023/04/26 04:47:25;;;;;;;1.30;1.02;;;;;;;;;;4999066;28;20105;-82
2023/04/26 04:49:57;;;;;;;1.77;0.90;;;;;;;;;;5017977;28;20037;-84
2023/04/26 04:52:32;;;;;;;1.05;0.45;;;;;;;;;;5029335;28;20045;-83
2023/04/26 04:54:58;;;;;;;3.08;1.27;;;;;;;;;;5008746;28;20048;-79
2023/04/26 04:57:25;;;;;;;0.40;0.40;;;;;;;;;;5025791;28;20033;-80
2023/04/26 04:59:50;;;;;;;1.02;0.93;;;;;;;;;;5023552;28;20060;-80
2023/04/26 05:02:19;;;;;;;0.40;0.40;;;;;;;;;;4998139;28;20041;-79
2023/04/26 05:04:51;;;;;;;0.90;0.70;;;;;;;;;;5008891;28;20033;-81
2023/04/26 05:07:36;;;;;;;1.63;1.30;;;;;;;;;;5040631;28;20029;-79
2023/04/26 05:10:02;;;;;;;0.28;0.28;;;;;;;;;;5025252;28;20034;-80
2023/04/26 05:12:28;;;;;;;0.35;0.22;;;;;;;;;;5015476;28;20035;-80
2023/04/26 05:14:53;;;;;;;0.30;0.30;;;;;;;;;;5026632;28;20056;-80
2023/04/26 05:17:29;;;;;;;0.88;0.63;;;;;;;;;;5018932;28;20041;-80
2023/04/26 05:19:58;;;;;;;1.05;0.98;;;;;;;;;;5024026;28;20029;-81
2023/04/26 05:22:25;;;;;;;0.73;0.50;;;;;;;;;;5029239;28;20508;-80
2023/04/26 05:24:51;;;;;;;0.47;0.47;;;;;;;;;;5004047;28;20030;-80
2023/04/26 05:27:17;;;;;;;0.55;0.38;;;;;;;;;;5024667;28;20107;-79
2023/04/26 05:29:42;;;;;;;0.60;0.30;;;;;;;;;;5020252;28;20191;-80
2023/04/26 05:32:08;;;;;;;0.32;0.32;;;;;;;;;;5002512;28;20029;-82
2023/04/26 05:34:33;;;;;;;1.10;0.70;;;;;;;;;;4986490;28;20061;-81
2023/04/26 05:36:59;;;;;;;5.32;2.13;;;;;;;;;;5008261;28;20375;-79
2023/04/26 05:39:25;;;;;;;0.80;0.75;;;;;;;;;;4991142;28;20052;-80
2023/04/26 05:41:50;;;;;;;1.17;0.70;;;;;;;;;;5039636;28;20036;-80
2023/04/26 05:44:16;;;;;;;0.73;0.60;;;;;;;;;;5002817;28;20496;-79
2023/04/26 05:46:48;;;;;;;0.95;0.73;;;;;;;;;;5025646;28;20037;-80
2023/04/26 05:49:16;;;;;;;1.10;0.82;;;;;;;;;;5037754;28;20025;-80
2023/04/26 05:51:45;;;;;;;1.17;0.88;;;;;;;;;;5003480;28;20041;-77
2023/04/26 05:54:17;;;;;;;1.88;0.98;;;;;;;;;;5008082;28;20109;-77
2023/04/26 05:56:43;;;;;;;1.42;1.23;;;;;;;;;;5007354;28;20045;-80
2023/04/26 05:59:12;;;;;;;1.00;0.80;;;;;;;;;;5002409;28;20653;-79
2023/04/26 06:01:44;;;;;;;1.92;0.90;;;;;;;;;;5023078;28;20923;-80
2023/04/26 06:04:09;;;;;;;1.58;0.95;;;;;;;;;;5015375;28;20462;-81
2023/04/26 06:06:35;;;;;;;1.50;0.70;;;;;;;;;;5017070;28;20049;-82
2023/04/26 06:09:01;;;;;;;1.75;1.20;;;;;;;;;;5039897;28;20033;-81
2023/04/26 06:11:26;;;;;;;1.30;0.85;;;;;;;;;;5037541;28;20501;-83
2023/04/26 06:13:52;;;;;;;1.30;1.00;;;;;;;;;;5021708;28;20422;-81
2023/04/26 06:16:17;;;;;;;1.33;0.82;;;;;;;;;;5020960;28;20029;-80
2023/04/26 06:18:43;;;;;;;1.83;0.95;;;;;;;;;;5017132;28;20030;-78
2023/04/26 06:21:08;;;;;;;1.10;1.00;;;;;;;;;;5026789;28;20433;-79
2023/04/26 06:23:34;;;;;;;1.08;0.77;;;;;;;;;;5034889;28;20029;-78
2023/04/26 06:26:03;;;;;;;0.95;0.88;;;;;;;;;;5036899;28;20260;-78
2023/04/26 06:28:28;;;;;;;7.03;0.65;;;;;;;;;;5036794;28;20060;-79
2023/04/26 06:30:54;;;;;;;0.85;0.75;;;;;;;;;;5003293;28;20021;-79
2023/04/26 06:33:19;;;;;;;0.88;0.77;;;;;;;;;;5036055;28;20398;-79
2023/04/26 06:35:46;;;;;;;1.73;1.30;;;;;;;;;;5036406;28;20025;-77
2023/04/26 06:38:11;;;;;;;1.10;1.00;;;;;;;;;;4988148;28;20029;-80
2023/04/26 06:40:40;;;;;;;1.58;1.10;;;;;;;;;;5006380;28;20041;-79
2023/04/26 06:43:07;;;;;;;1.10;0.90;;;;;;;;;;5003256;28;20069;-82
2023/04/26 06:45:32;;;;;;;6.28;1.52;;;;;;;;;;5004980;28;20048;-79
2023/04/26 06:48:07;;;;;;;1.48;0.90;;;;;;;;;;4984009;28;20065;-77
2023/04/26 06:50:33;;;;;;;2.30;0.90;;;;;;;;;;5009021;28;20029;-81
2023/04/26 06:59:02;;;;;;;1.05;0.98;;;;;;;;;;5081007;22;20064;-81
2023/04/26 07:01:28;;;;;;;2.50;1.30;;;;;;;;;;5030145;28;20096;-77
2023/04/26 07:03:56;;;;;;;1.33;1.10;;;;;;;;;;5046034;28;20032;-77
2023/04/26 07:06:25;;;;;;;1.60;1.02;;;;;;;;;;5046455;28;20442;-79
2023/04/26 07:08:51;;;;;;;1.20;1.10;;;;;;;;;;5029177;28;20044;-79
2023/04/26 07:11:16;;;;;;;1.10;1.00;;;;;;;;;;5062282;28;20033;-79
2023/04/26 07:13:45;;;;;;;1.65;1.00;;;;;;;;;;5026309;28;20458;-79
2023/04/26 07:16:10;;;;;;;3.55;1.33;;;;;;;;;;5043699;28;20140;-78
2023/04/26 07:18:35;;;;;;;1.75;0.90;;;;;;;;;;5044554;28;20057;-78
2023/04/26 07:21:01;;;;;;;2.28;1.10;;;;;;;;;;5045031;28;20025;-77
2023/04/26 07:23:28;;;;;;;1.10;0.95;;;;;;;;;;5043846;28;20123;-78
2023/04/26 07:25:54;;;;;;;1.65;0.90;;;;;;;;;;5042362;28;20033;-77
2023/04/26 07:28:19;;;;;;;1.10;1.00;;;;;;;;;;5061559;28;20028;-76
2023/04/26 07:30:45;;;;;;;0.93;0.68;;;;;;;;;;5043341;28;20359;-77
2023/04/26 07:33:11;;;;;;;0.77;0.70;;;;;;;;;;5023288;28;20123;-76
2023/04/26 07:35:37;;;;;;;2.40;1.08;;;;;;;;;;5040866;28;20359;-80
2023/04/26 07:38:03;;;;;;;1.88;1.05;;;;;;;;;;5062560;28;20025;-77
2023/04/26 07:40:30;;;;;;;1.70;1.30;;;;;;;;;;5035958;28;20016;-78
2023/04/26 07:42:55;;;;;;;4.15;1.33;;;;;;;;;;5061299;28;20432;-78
2023/04/26 07:45:21;;;;;;;1.00;0.90;;;;;;;;;;5041372;28;20071;-79
2023/04/26 07:47:46;;;;;;;1.63;0.90;;;;;;;;;;5009304;28;20185;-79
2023/04/26 07:50:12;;;;;;;1.58;0.88;;;;;;;;;;5027914;28;20025;-78
2023/04/26 07:52:38;;;;;;;1.00;0.90;;;;;;;;;;5038794;28;20311;-78
2023/04/26 07:55:03;;;;;;;1.27;0.88;;;;;;;;;;5031334;28;20570;-78
2023/04/26 07:57:30;;;;;;;2.08;1.25;;;;;;;;;;5033709;28;20196;-77
2023/04/26 07:59:56;;;;;;;1.40;1.00;;;;;;;;;;5018226;28;20036;-76
2023/04/26 08:02:22;;;;;;;1.00;0.75;;;;;;;;;;5034279;28;20093;-77
2023/04/26 08:05:33;;;;;;;5.25;1.50;;;;;;;;;;5058417;28;20124;-78
2023/04/26 08:08:31;;;;;;;;;;;;;;;;;;;;;
2023/04/26 08:10:56;;;;;;;0.93;0.82;;;;;;;;;;5053702;28;20112;-78
2023/04/26 08:13:22;;;;;;;1.65;1.23;;;;;;;;;;5063999;28;20482;-85
2023/04/26 08:15:48;;;;;;;0.82;0.65;;;;;;;;;;5018105;28;20107;-82
2023/04/26 08:18:13;;;;;;;1.95;1.40;;;;;;;;;;5062129;28;20029;-80
2023/04/26 08:20:39;;;;;;;2.08;1.05;;;;;;;;;;5063054;28;20056;-80
2023/04/26 08:23:05;;;;;;;1.35;1.10;;;;;;;;;;5027831;28;20063;-79
2023/04/26 08:25:33;;;;;;;1.27;0.75;;;;;;;;;;5043806;28;20090;-81
2023/04/26 08:27:58;;;;;;;1.20;1.10;;;;;;;;;;5028485;28;20032;-80
2023/04/26 08:30:24;;;;;;;2.88;1.00;;;;;;;;;;5063571;28;20252;-81
2023/04/26 08:32:50;;;;;;;1.55;1.10;;;;;;;;;;5043734;28;20358;-81
2023/04/26 08:35:21;;;;;;;1.52;0.80;;;;;;;;;;5046624;28;20041;-83
2023/04/26 08:37:46;;;;;;;5.65;1.70;;;;;;;;;;5059032;28;20055;-82
2023/04/26 08:40:39;;;;;;;2.17;0.93;;;;;;;;;;5020129;28;20061;-83
2023/04/26 08:43:05;;;;;;;0.80;0.80;;;;;;;;;;5015170;28;20101;-83
2023/04/26 08:45:33;;;;;;;1.48;1.00;;;;;;;;;;5017068;28;20084;-82
2023/04/26 08:55:01;;;;;;;1.45;1.10;;;;;;;;;;5007091;28;20040;-82
2023/04/26 08:58:03;;;;;;;1.33;0.73;;;;;;;;;;5046280;28;20095;-84
2023/04/26 09:06:19;;;;;;;1.67;1.00;;;;;;;;;;5280713;22;20077;-82
2023/04/26 09:08:44;;;;;;;1.60;0.98;;;;;;;;;;5030994;28;20033;-84
2023/04/26 09:11:10;;;;;;;1.23;0.90;;;;;;;;;;5044730;28;20044;-80
2023/04/26 09:13:36;;;;;;;0.80;0.80;;;;;;;;;;5068510;28;20021;-80
2023/04/26 09:16:01;;;;;;;0.85;0.82;;;;;;;;;;5044025;28;20028;-80
2023/04/26 09:18:27;;;;;;;3.35;0.90;;;;;;;;;;5046547;28;20512;-78
2023/04/26 09:21:33;;;;;;;1.77;1.10;;;;;;;;;;5029814;28;20036;-86
2023/04/26 09:24:03;;;;;;;0.63;0.63;;;;;;;;;;5063304;28;20032;-80
2023/04/26 09:26:37;;;;;;;1.27;0.80;;;;;;;;;;5020391;28;20037;-85
2023/04/26 09:29:39;;;;;;;1.23;0.90;;;;;;;;;;5047431;28;20052;-81
2023/04/26 09:32:06;;;;;;;3.65;1.15;;;;;;;;;;5041129;28;20033;-81
2023/04/26 09:34:43;;;;;;;1.00;0.90;;;;;;;;;;5049090;28;20055;-79
2023/04/26 09:37:13;;;;;;;1.13;1.02;;;;;;;;;;5032326;28;20021;-81
2023/04/26 09:39:41;;;;;;;0.65;0.60;;;;;;;;;;5022378;28;20036;-78
2023/04/26 09:42:07;;;;;;;0.70;0.63;;;;;;;;;;5036764;28;20171;-78
2023/04/26 09:44:32;;;;;;;1.30;1.00;;;;;;;;;;5011933;28;20052;-81
2023/04/26 09:46:58;;;;;;;0.52;0.52;;;;;;;;;;5023959;28;20033;-81
2023/04/26 09:49:32;;;;;;;3.75;1.50;;;;;;;;;;5032805;28;20124;-80
2023/04/26 09:52:04;;;;;;;0.75;0.63;;;;;;;;;;5029003;28;20040;-83
2023/04/26 09:54:53;;;;;;;1.75;0.90;;;;;;;;;;5033582;28;20128;-81
2023/04/26 09:57:20;;;;;;;0.68;0.60;;;;;;;;;;5053955;28;20064;-82
2023/04/26 09:59:50;;;;;;;1.00;0.85;;;;;;;;;;5035931;28;20397;-87
2023/04/26 10:02:26;;;;;;;1.67;1.10;;;;;;;;;;5024445;28;20084;-84
2023/04/26 10:04:55;;;;;;;1.17;1.08;;;;;;;;;;5010037;28;20116;-81
2023/04/26 10:07:23;;;;;;;1.42;1.27;;;;;;;;;;5041003;28;20037;-82
2023/04/26 10:09:48;;;;;;;5.47;1.25;;;;;;;;;;5061170;28;20155;-84
2023/04/26 10:12:17;;;;;;;0.82;0.82;;;;;;;;;;5045792;28;20063;-83
2023/04/26 10:14:43;;;;;;;1.42;1.10;;;;;;;;;;5025551;28;20103;-81
2023/04/26 10:17:10;;;;;;;0.88;0.80;;;;;;;;;;5005393;28;20036;-81
2023/04/26 10:19:36;;;;;;;0.82;0.80;;;;;;;;;;5010742;28;20132;-80
2023/04/26 10:22:04;;;;;;;0.95;0.82;;;;;;;;;;5037762;28;20067;-81
2023/04/26 10:24:30;;;;;;;0.85;0.85;;;;;;;;;;5004959;28;20051;-78
2023/04/26 10:26:56;;;;;;;1.23;0.95;;;;;;;;;;5015847;28;20037;-79
2023/04/26 10:29:46;;;;;;;1.20;1.05;;;;;;;;;;5037272;28;20092;-84
2023/04/26 10:32:16;;;;;;;0.73;0.70;;;;;;;;;;5049574;28;20505;-82
2023/04/26 10:34:42;;;;;;;1.25;0.90;;;;;;;;;;5012914;28;20021;-82
2023/04/26 10:37:10;;;;;;;0.88;0.77;;;;;;;;;;5034317;28;20153;-79
2023/04/26 10:39:35;;;;;;;0.88;0.55;;;;;;;;;;5056106;28;20025;-82
2023/04/26 10:42:22;;;;;;;0.60;0.40;;;;;;;;;;5024257;28;20089;-81
2023/04/26 10:44:49;;;;;;;0.85;0.45;;;;;;;;;;5058160;28;20036;-80
2023/04/26 10:47:27;;;;;;;0.93;0.77;;;;;;;;;;5043266;28;20412;-82
2023/04/26 10:50:00;;;;;;;4.28;1.10;;;;;;;;;;5052294;28;20057;-81
2023/04/26 10:52:25;;;;;;;1.65;0.95;;;;;;;;;;5025732;28;20028;-81
2023/04/26 10:54:53;;;;;;;1.23;0.65;;;;;;;;;;5004348;28;20025;-81
2023/04/26 10:57:18;;;;;;;1.08;0.55;;;;;;;;;;5020122;28;20044;-80
2023/04/26 11:00:09;;;;;;;0.60;0.60;;;;;;;;;;5020904;28;20454;-80
2023/04/26 11:03:02;;;;;;;1.13;0.70;;;;;;;;;;5022933;28;20128;-81
2023/04/26 11:05:52;;;;;;;1.80;1.02;;;;;;;;;;5022676;28;20054;-82
2023/04/26 11:08:20;;;;;;;1.20;0.80;;;;;;;;;;5040334;28;20046;-81
2023/04/26 11:11:09;;;;;;;3.33;0.60;;;;;;;;;;5041900;28;20114;-83
2023/04/26 11:13:39;;;;;;;0.60;0.50;;;;;;;;;;5019756;28;20034;-81
2023/04/26 11:16:14;;;;;;;;;;;;;;;;;;5021257;28;20033;-83
2023/04/26 11:18:48;;;;;;;0.40;0.40;;;;;;;;;;5022155;28;19957;-83
2023/04/26 11:21:16;;;;;;;0.68;0.60;;;;;;;;;;5041490;28;20172;-81
2023/04/26 11:23:42;;;;;;;0.82;0.82;;;;;;;;;;5022409;28;20036;-78
2023/04/26 11:26:10;;;;;;;1.15;0.98;;;;;;;;;;5024354;28;20034;-81
2023/04/26 11:28:37;;;;;;;0.60;0.60;;;;;;;;;;5013144;28;20025;-81
2023/04/26 11:31:03;;;;;;;0.75;0.70;;;;;;;;;;5012868;28;20093;-81
2023/04/26 11:33:28;;;;;;;0.93;0.90;;;;;;;;;;5056015;28;20053;-82
2023/04/26 11:35:55;;;;;;;0.65;0.65;;;;;;;;;;5060706;28;20025;-82
2023/04/26 11:38:29;;;;;;;0.95;0.80;;;;;;;;;;5009831;28;20048;-83
2023/04/26 11:41:00;;;;;;;0.60;0.60;;;;;;;;;;5025993;28;20045;-82
2023/04/26 11:43:38;;;;;;;0.55;0.55;;;;;;;;;;5041554;28;20029;-84
2023/04/26 11:46:05;;;;;;;0.68;0.68;;;;;;;;;;5042744;28;20081;-81
2023/04/26 11:48:32;;;;;;;1.00;0.73;;;;;;;;;;5060945;28;20040;-82
2023/04/26 11:50:58;;;;;;;3.58;1.02;;;;;;;;;;5042757;28;20021;-82
2023/04/26 11:53:23;;;;;;;1.63;1.25;;;;;;;;;;5042032;28;20281;-83
2023/04/26 11:55:49;;;;;;;0.60;0.60;;;;;;;;;;5042050;28;20036;-83
2023/04/26 11:58:16;;;;;;;1.67;0.70;;;;;;;;;;5025591;28;20029;-82
2023/04/26 12:00:57;;;;;;;0.47;0.47;;;;;;;;;;5060134;28;20033;-80
2023/04/26 12:03:23;;;;;;;0.90;0.63;;;;;;;;;;5060317;28;20048;-82
2023/04/26 12:05:53;;;;;;;0.65;0.63;;;;;;;;;;5043957;28;20037;-82
2023/04/26 12:08:19;;;;;;;0.70;0.70;;;;;;;;;;5013154;28;20049;-79
2023/04/26 12:10:45;;;;;;;2.38;0.50;;;;;;;;;;5011882;28;20037;-79
2023/04/26 12:13:12;;;;;;;0.85;0.50;;;;;;;;;;5026400;28;20033;-79
2023/04/26 12:15:38;;;;;;;0.43;0.43;;;;;;;;;;5041764;28;20037;-84
2023/04/26 12:18:07;;;;;;;0.90;0.60;;;;;;;;;;5043993;28;20102;-83
2023/04/26 12:20:34;;;;;;;0.98;0.75;;;;;;;;;;5027199;28;20029;-80
2023/04/26 12:23:04;;;;;;;0.77;0.57;;;;;;;;;;5030286;28;20033;-81
2023/04/26 12:25:29;;;;;;;1.23;0.68;;;;;;;;;;5047159;28;20043;-82
2023/04/26 12:27:55;;;;;;;1.83;1.65;;;;;;;;;;5029599;28;20363;-80
2023/04/26 12:30:21;;;;;;;0.85;0.63;;;;;;;;;;5012704;28;20150;-81
2023/04/26 12:32:46;;;;;;;0.88;0.63;;;;;;;;;;5013075;28;20035;-83
2023/04/26 12:35:12;;;;;;;2.45;0.70;;;;;;;;;;5013406;28;20031;-82
2023/04/26 12:37:37;;;;;;;1.05;0.77;;;;;;;;;;5046320;28;20078;-82
2023/04/26 12:40:03;;;;;;;1.27;0.77;;;;;;;;;;5030349;28;20017;-82
2023/04/26 12:42:28;;;;;;;0.70;0.60;;;;;;;;;;5047310;28;20017;-82
2023/04/26 12:44:57;;;;;;;0.77;0.52;;;;;;;;;;5030559;28;20021;-80
2023/04/26 12:47:23;;;;;;;1.08;0.60;;;;;;;;;;5013118;28;20421;-82
2023/04/26 12:49:48;;;;;;;1.38;0.88;;;;;;;;;;5041775;28;20035;-81
2023/04/26 12:52:13;;;;;;;0.60;0.60;;;;;;;;;;5009515;28;20089;-83
2023/04/26 12:54:39;;;;;;;0.82;0.75;;;;;;;;;;5042689;28;20326;-83
2023/04/26 12:57:04;;;;;;;1.20;1.10;;;;;;;;;;5003933;28;20102;-82
2023/04/26 12:59:30;;;;;;;3.17;1.00;;;;;;;;;;5035159;28;20458;-83
2023/04/26 13:01:55;;;;;;;0.60;0.60;;;;;;;;;;5003917;28;20343;-83
2023/04/26 13:04:21;;;;;;;0.40;0.40;;;;;;;;;;5005131;28;20033;-82
2023/04/26 13:06:46;;;;;;;1.02;0.50;;;;;;;;;;5055561;28;20044;-81
2023/04/26 13:09:12;;;;;;;1.17;0.70;;;;;;;;;;5037784;28;20036;-81
2023/04/26 13:11:38;;;;;;;0.60;0.60;;;;;;;;;;5021311;28;20021;-82
2023/04/26 13:14:05;;;;;;;0.63;0.43;;;;;;;;;;5021084;28;20036;-81
2023/04/26 13:16:32;;;;;;;0.75;0.75;;;;;;;;;;5021440;28;20063;-82
2023/04/26 13:18:57;;;;;;;0.50;0.50;;;;;;;;;;5021547;28;20052;-82
2023/04/26 13:21:22;;;;;;;0.98;0.77;;;;;;;;;;5037966;28;20083;-82
2023/04/26 13:23:48;;;;;;;0.50;0.50;;;;;;;;;;5021134;28;20029;-82
2023/04/26 13:26:16;;;;;;;1.98;0.73;;;;;;;;;;5037527;28;20028;-83
2023/04/26 13:28:41;;;;;;;1.52;0.75;;;;;;;;;;5021781;28;20116;-83
2023/04/26 13:31:07;;;;;;;0.38;0.38;;;;;;;;;;5037349;28;20060;-83
2023/04/26 13:33:32;;;;;;;0.80;0.57;;;;;;;;;;5020327;28;20029;-80
2023/04/26 13:35:58;;;;;;;0.90;0.85;;;;;;;;;;5021080;28;20489;-83
2023/04/26 13:38:24;;;;;;;0.43;0.43;;;;;;;;;;5020898;28;20037;-82
2023/04/26 13:40:49;;;;;;;1.15;0.50;;;;;;;;;;5037079;28;20133;-83
2023/04/26 13:43:14;;;;;;;0.60;0.60;;;;;;;;;;5020922;28;20123;-81
2023/04/26 13:45:40;;;;;;;0.65;0.65;;;;;;;;;;5020956;28;20024;-81
2023/04/26 13:48:05;;;;;;;1.38;0.55;;;;;;;;;;5004003;28;20090;-82
2023/04/26 13:50:31;;;;;;;0.82;0.73;;;;;;;;;;5004678;28;20033;-82
2023/04/26 13:52:57;;;;;;;0.80;0.60;;;;;;;;;;5037063;28;20063;-82
2023/04/26 13:55:22;;;;;;;1.17;0.85;;;;;;;;;;5054773;28;20077;-81
2023/04/26 13:57:48;;;;;;;0.93;0.80;;;;;;;;;;5037280;28;20032;-81
2023/04/26 14:00:14;;;;;;;1.27;0.85;;;;;;;;;;5037207;28;20484;-82
2023/04/26 14:02:39;;;;;;;1.65;0.85;;;;;;;;;;5020615;28;20035;-80
2023/04/26 14:05:06;;;;;;;0.88;0.68;;;;;;;;;;5020853;28;20037;-82
2023/04/26 14:07:32;;;;;;;0.98;0.88;;;;;;;;;;5018257;28;20048;-80
2023/04/26 14:09:57;;;;;;;0.55;0.52;;;;;;;;;;5017192;28;20025;-80
2023/04/26 14:12:23;;;;;;;1.38;0.93;;;;;;;;;;5054075;28;20033;-81
2023/04/26 14:14:48;;;;;;;1.10;0.80;;;;;;;;;;5036402;28;20102;-82
2023/04/26 14:17:14;;;;;;;1.13;0.70;;;;;;;;;;5036645;28;20513;-82
2023/04/26 14:19:40;;;;;;;3.25;1.17;;;;;;;;;;5020222;28;20024;-81
2023/04/26 14:22:08;;;;;;;5.28;0.77;;;;;;;;;;5054477;28;20373;-81
2023/04/26 14:24:34;;;;;;;0.57;0.52;;;;;;;;;;5036665;28;20048;-82
2023/04/26 14:27:00;;;;;;;1.95;0.77;;;;;;;;;;5036567;28;20033;-81
2023/04/26 14:29:25;;;;;;;1.48;1.35;;;;;;;;;;5020039;28;20127;-80
2023/04/26 14:31:51;;;;;;;0.90;0.65;;;;;;;;;;5020136;28;20139;-82
2023/04/26 14:34:17;;;;;;;1.13;0.60;;;;;;;;;;5036563;28;20075;-82
2023/04/26 14:36:42;;;;;;;0.65;0.50;;;;;;;;;;5020070;28;20033;-81
2023/04/26 14:39:11;;;;;;;0.98;0.60;;;;;;;;;;5054161;28;20040;-81
2023/04/26 14:41:36;;;;;;;0.60;0.60;;;;;;;;;;5036321;28;20029;-80
2023/04/26 14:44:02;;;;;;;1.17;0.63;;;;;;;;;;5019297;28;20044;-81
2023/04/26 14:46:27;;;;;;;0.88;0.63;;;;;;;;;;5036282;28;20028;-83
2023/04/26 14:48:54;;;;;;;0.60;0.50;;;;;;;;;;5053985;28;20090;-83
2023/04/26 14:51:19;;;;;;;1.75;0.63;;;;;;;;;;5036160;28;20029;-82
2023/04/26 14:53:45;;;;;;;0.43;0.43;;;;;;;;;;5035902;28;20044;-81
2023/04/26 14:56:10;;;;;;;0.65;0.65;;;;;;;;;;5019790;28;20032;-80
2023/04/26 14:58:36;;;;;;;0.98;0.55;;;;;;;;;;5003041;28;20466;-81
2023/04/26 15:01:01;;;;;;;0.57;0.50;;;;;;;;;;5019216;28;20024;-80
2023/04/26 15:03:26;;;;;;;1.80;1.00;;;;;;;;;;5034328;28;20035;-80